• Join FlightAware (Why Join?)
  • Login
  • US Flag 
03:19PM EDT


 

Airport Tracker/Info


-or-


 

Live Flight TrackerFlight Track Log ✈ SWA1287 ✈ 05-May-2013 ✈ KOKC - KMCI

Flight Track Log - Related Links

Times and Time Zones

All times are in EDT time to prevent confusion due to time zone crossing. See the SWA1287 flight status page for this flight to view local times or setup timezone preferences in your user account.

Time Position Orientation Groundspeed Altitude Reporting Facility
EDT Latitude Longitude Course Direction KTS MPH feet Rate Location/Type
05:00PM 35.4206 -97.5894 19° North 164 189 2,700  Level Fort Worth Center
05:01PM 35.4750 -97.5717 15° North 220 253 4,600 2,340 Climbing Fort Worth Center
05:03PM 35.6106 -97.5261 15° North 258 297 9,900 2,640 Climbing Kansas City Center
05:04PM 35.7078 -97.4956 14° North 297 342 12,800 2,880 Climbing Kansas City Center
05:05PM 35.7997 -97.4661 15° North 337 388 16,000 2,640 Climbing Kansas City Center
05:06PM 35.8911 -97.4367 15° North 339 390 18,300 2,280 Climbing Kansas City Center
05:07PM 35.9886 -97.4050 15° North 354 407 20,800 2,160 Climbing Kansas City Center
05:08PM 36.0889 -97.3731 14° North 366 421 22,800 1,860 Climbing Kansas City Center
05:10PM 36.2335 -97.3166 22° Northeast  Level FlightAware Approximate
05:11PM 36.4247 -97.2178 30° Northeast 418 481 28,600  Level Kansas City Center
05:12PM 36.5264 -97.1428 31° Northeast 424 488 30,600 1,080 Climbing Kansas City Center
05:13PM 36.6317 -97.0653 31° Northeast 419 482 30,900 120 Climbing Kansas City Center
05:14PM 36.7347 -96.9900 30° Northeast 424 488 30,900  Level Kansas City Center
05:15PM 36.8378 -96.9150 30° Northeast 426 490 30,900  Level Kansas City Center
05:16PM 36.9439 -96.8356 31° Northeast 421 484 30,900  Level Kansas City Center
05:17PM 36.8300 -96.9001 30° Northeast  Level FlightAware Approximate
05:17PM 37.0383 -96.7661 30° Northeast 417 480 30,900  Level Kansas City Center
05:18PM 37.1428 -96.6883 31° Northeast 416 479 30,900  Level Kansas City Center
05:19PM 37.2425 -96.6139 31° Northeast 417 480 30,900  Level Kansas City Center
05:20PM 37.3414 -96.5403 31° Northeast 415 478 30,900  Level Kansas City Center
05:21PM 37.4586 -96.4522 31° Northeast 412 474 30,900  Level Kansas City Center
05:22PM 37.5558 -96.3792 31° Northeast 412 474 31,000  Climbing Kansas City Center
05:23PM 37.6658 -96.2969 31° Northeast 410 472 30,900 -60 Descending Kansas City Center
05:25PM 37.7525 -96.2308 31° Northeast 410 472 30,900 -360 Level Kansas City Center
05:26PM 37.8500 -96.1578 31° Northeast 407 468 30,200 -900 Descending Kansas City Center
05:27PM 37.9625 -96.0744 30° Northeast 398 458 29,100 -1,020 Descending Kansas City Center
05:28PM 38.0575 -96.0019 31° Northeast 413 475 28,200 -960 Descending Kansas City Center
05:29PM 38.1706 -95.9139 31° Northeast 428 493 27,200 -1,020 Descending Kansas City Center
05:30PM 38.2672 -95.8411 31° Northeast 424 488 26,200 -1,920 Descending Kansas City Center
05:32PM 38.4628 -95.6900 31° Northeast 392 451 21,300 -2,340 Descending Kansas City Center
05:33PM 38.5442 -95.6247 32° Northeast 368 423 19,100 -2,220 Descending Kansas City Center
05:34PM 38.6367 -95.5539 31° Northeast 351 404 16,800 -2,280 Descending Kansas City Center
05:35PM 38.7133 -95.4931 32° Northeast 339 390 14,500 -2,460 Descending Kansas City Center
05:36PM 38.8008 -95.4228 32° Northeast 334 384 11,800 -2,100 Descending Kansas City Center
05:37PM 38.8594 -95.3442 46° Northeast 318 366 10,200 -1,440 Descending Kansas City Center
05:38PM 38.9144 -95.2631 49° Northeast 270 311 8,900 -1,260 Descending Kansas City Center
05:39PM 38.9419 -95.1844 66° East 252 290 7,700 -1,200 Descending Kansas City Center
05:40PM 38.9750 -95.0947 65° Northeast 251 289 6,500 -900 Descending Kansas City Center
05:41PM 39.0050 -95.0139 64° Northeast 261 300 5,900 -300 Descending Kansas City Center
05:42PM 39.0378 -94.9233 65° Northeast 250 288 5,900 -540 Level Kansas City Center
05:43PM 39.0733 -94.8600 54° Northeast 232 267 4,900 -1,200 Descending Kansas City Center
05:44PM 39.1222 -94.7942 46° Northeast 228 262 3,500 -1,020 Descending Kansas City Center
05:45PM 39.1750 -94.7639 24° Northeast 222 255 2,900 -540 Descending Kansas City Center
05:46PM 39.2275 -94.7486 13° North 172 198 2,400 -600 Descending Kansas City Center
05:47PM 39.2617 -94.7383 13° North 137 158 1,700 -720 Descending Kansas City Center
05:48PM 39.2939 -94.7286 13° North 124 143 1,000 -720 Descending Kansas City Center
05:50PM 39.2976 -94.7139 67° East  Level Estimated